Time;durP1;ratioP1;P1;durP2;ratioP2;P2;SDS_P1;SDS_P2;PMS_P1;PMS_P2;Temp;Humidity;BMP_temperature;BMP_pressure;BME280_temperature;BME280_humidity;BME280_pressure;Samples;Min_cycle;Max_cycle;Signal;HPM_P1;HPM_P2
2020/12/11 00:02:05;;;;;;;30.50;25.17;;;1.90;99.90;;;;;;5047695;28;20187;-69
2020/12/11 00:04:31;;;;;;;31.17;24.67;;;1.90;99.90;;;;;;5046119;28;20794;-69
2020/12/11 00:06:57;;;;;;;30.30;24.03;;;1.90;99.90;;;;;;5043416;28;20222;-68
2020/12/11 00:09:24;;;;;;;27.97;23.40;;;1.90;99.90;;;;;;5046188;28;20310;-69
2020/12/11 00:11:50;;;;;;;31.23;23.93;;;1.90;99.90;;;;;;5044842;28;20187;-68
2020/12/11 00:14:16;;;;;;;27.57;22.60;;;1.90;99.90;;;;;;5043754;28;20606;-70
2020/12/11 00:16:42;;;;;;;23.77;20.77;;;1.90;99.90;;;;;;5046905;28;20278;-69
2020/12/11 00:19:07;;;;;;;25.27;21.63;;;1.90;99.30;;;;;;5042813;28;20621;-69
2020/12/11 00:21:43;;;;;;;25.23;21.37;;;2.00;99.30;;;;;;5044376;28;20189;-69
2020/12/11 00:24:11;;;;;;;23.67;20.77;;;2.00;99.30;;;;;;5043785;28;20197;-70
2020/12/11 00:26:36;;;;;;;23.53;19.07;;;1.90;99.50;;;;;;5035416;28;20198;-69
2020/12/11 00:29:03;;;;;;;18.80;16.77;;;1.90;99.40;;;;;;5036072;28;20188;-69
2020/12/11 00:31:28;;;;;;;22.53;20.10;;;1.90;98.10;;;;;;5038040;28;20188;-68
2020/12/11 00:33:54;;;;;;;21.37;19.07;;;2.00;98.70;;;;;;5038487;28;20632;-69
2020/12/11 00:36:21;;;;;;;20.17;17.97;;;1.90;99.10;;;;;;5032471;28;20194;-70
2020/12/11 00:38:47;;;;;;;20.70;18.60;;;1.90;98.90;;;;;;5043476;28;20212;-67
2020/12/11 00:41:13;;;;;;;20.73;18.63;;;2.00;98.30;;;;;;5041676;28;20196;-68
2020/12/11 00:43:39;;;;;;;20.30;18.23;;;2.00;97.90;;;;;;5033157;28;20198;-68
2020/12/11 00:46:04;;;;;;;19.53;17.53;;;2.00;97.80;;;;;;5018421;28;20672;-68
2020/12/11 00:48:30;;;;;;;19.90;17.80;;;2.00;98.30;;;;;;5033070;28;20196;-68
2020/12/11 00:50:56;;;;;;;16.33;14.73;;;2.00;97.60;;;;;;5039631;28;20245;-68
2020/12/11 00:53:21;;;;;;;18.53;16.53;;;2.00;96.90;;;;;;5044345;28;20227;-68
2020/12/11 00:55:47;;;;;;;19.00;17.07;;;2.00;97.20;;;;;;5037069;28;20207;-69
2020/12/11 00:58:13;;;;;;;19.30;17.23;;;1.90;97.70;;;;;;5042338;28;20234;-68
2020/12/11 01:00:39;;;;;;;18.20;16.30;;;2.00;98.00;;;;;;5041790;28;20204;-68
2020/12/11 01:03:04;;;;;;;17.73;15.83;;;2.00;97.40;;;;;;5020252;28;20679;-68
2020/12/11 01:05:31;;;;;;;19.03;17.03;;;2.00;97.50;;;;;;5033830;28;20177;-68
2020/12/11 01:07:57;;;;;;;17.43;15.73;;;2.00;97.50;;;;;;5041856;28;20548;-68
2020/12/11 01:10:22;;;;;;;14.90;13.50;;;1.90;97.20;;;;;;5046827;28;20216;-68
2020/12/11 01:12:48;;;;;;;16.30;14.70;;;1.90;96.50;;;;;;5048593;28;20278;-68
2020/12/11 01:15:14;;;;;;;15.30;13.70;;;1.90;96.90;;;;;;5040901;28;20197;-67
2020/12/11 01:17:39;;;;;;;16.33;14.73;;;1.90;97.00;;;;;;5040218;28;20639;-67
2020/12/11 01:20:05;;;;;;;15.50;14.03;;;1.80;97.30;;;;;;5038138;28;20615;-67
2020/12/11 01:22:32;;;;;;;17.13;15.43;;;1.80;97.40;;;;;;5041798;28;20191;-67
2020/12/11 01:24:58;;;;;;;17.30;15.53;;;1.70;97.70;;;;;;5044721;28;20194;-67
2020/12/11 01:27:24;;;;;;;18.60;16.67;;;1.60;98.10;;;;;;5048850;28;20777;-68
2020/12/11 01:29:50;;;;;;;19.10;17.20;;;1.60;98.30;;;;;;5039885;28;20340;-68
2020/12/11 01:32:16;;;;;;;17.70;15.90;;;1.50;98.50;;;;;;5039891;28;20188;-68
2020/12/11 01:34:42;;;;;;;17.33;15.63;;;1.50;98.70;;;;;;5043421;28;20197;-68
2020/12/11 01:37:08;;;;;;;18.00;16.10;;;1.40;98.60;;;;;;5038199;28;20188;-67
2020/12/11 01:39:33;;;;;;;19.33;17.30;;;1.40;98.90;;;;;;5048179;28;20218;-68
2020/12/11 01:42:00;;;;;;;19.00;17.00;;;1.40;99.00;;;;;;5042560;28;20202;-70
2020/12/11 01:44:26;;;;;;;16.97;15.13;;;1.40;99.00;;;;;;5037435;28;20626;-68
2020/12/11 01:46:56;;;;;;;20.23;18.13;;;1.40;98.80;;;;;;5036356;28;20184;-68
2020/12/11 01:49:22;;;;;;;20.70;18.50;;;1.30;99.00;;;;;;5045102;28;20226;-67
2020/12/11 01:51:50;;;;;;;21.90;19.60;;;1.30;99.50;;;;;;5037710;28;20229;-69
2020/12/11 01:54:16;;;;;;;22.13;19.57;;;1.20;99.80;;;;;;5042410;28;20651;-68
2020/12/11 01:57:34;;;;;;;24.17;20.63;;;1.10;99.90;;;;;;5044978;28;20297;-68
2020/12/11 02:00:05;;;;;;;25.97;19.53;;;1.10;99.90;;;;;;4955760;28;20636;-67
2020/12/11 02:02:35;;;;;;;22.57;18.97;;;1.00;99.90;;;;;;4953214;28;20194;-68
2020/12/11 02:05:01;;;;;;;24.07;19.70;;;1.00;99.90;;;;;;4951605;28;20204;-69
2020/12/11 02:07:27;;;;;;;24.83;21.40;;;0.90;99.90;;;;;;4951270;28;20584;-69
2020/12/11 02:09:52;;;;;;;24.17;21.20;;;0.90;99.90;;;;;;4953582;28;20268;-69
2020/12/11 02:12:18;;;;;;;25.40;22.07;;;0.90;99.90;;;;;;4950767;28;20195;-68
2020/12/11 02:14:47;;;;;;;26.63;23.40;;;0.90;99.90;;;;;;4957087;28;20249;-69
2020/12/11 02:17:13;;;;;;;26.00;22.77;;;0.90;99.90;;;;;;4953043;28;20228;-69
2020/12/11 02:19:38;;;;;;;26.77;21.93;;;0.90;99.90;;;;;;4952673;28;20225;-69
2020/12/11 02:22:05;;;;;;;26.37;23.20;;;0.80;99.90;;;;;;4951385;28;20736;-69
2020/12/11 02:24:31;;;;;;;25.53;22.57;;;0.80;99.90;;;;;;4956170;28;20362;-69
2020/12/11 02:26:57;;;;;;;27.23;22.93;;;0.80;99.90;;;;;;4954261;28;20208;-69
2020/12/11 02:29:24;;;;;;;29.90;23.57;;;0.80;99.90;;;;;;4952729;28;20235;-69
2020/12/11 02:31:50;;;;;;;28.70;22.40;;;0.70;99.90;;;;;;5042381;28;20178;-69
2020/12/11 02:34:16;;;;;;;31.80;24.97;;;0.70;99.90;;;;;;5050484;28;20212;-68
2020/12/11 02:36:42;;;;;;;28.53;23.23;;;0.60;99.90;;;;;;5036777;28;20615;-68
2020/12/11 02:39:07;;;;;;;28.23;23.43;;;0.50;99.90;;;;;;5040795;28;20210;-68
2020/12/11 02:41:33;;;;;;;28.40;22.83;;;0.50;99.90;;;;;;5025773;28;637302;-68
2020/12/11 02:44:00;;;;;;;30.43;24.13;;;0.50;99.90;;;;;;5038695;28;20836;-68
2020/12/11 02:46:26;;;;;;;27.03;22.00;;;0.50;99.90;;;;;;5034607;28;20190;-68
2020/12/11 02:48:52;;;;;;;28.10;23.03;;;0.50;99.90;;;;;;5037768;28;20199;-68
2020/12/11 02:51:17;;;;;;;29.33;23.90;;;0.50;99.90;;;;;;5024884;28;20191;-69
2020/12/11 02:53:43;;;;;;;29.00;23.87;;;0.50;99.90;;;;;;5041482;28;20274;-67
2020/12/11 02:56:09;;;;;;;28.30;23.50;;;0.50;99.90;;;;;;5045077;28;20190;-69
2020/12/11 02:58:34;;;;;;;28.03;23.90;;;0.50;99.90;;;;;;5042454;28;20208;-68
2020/12/11 03:01:00;;;;;;;28.13;22.93;;;0.50;99.90;;;;;;5033823;28;20201;-67
2020/12/11 03:03:25;;;;;;;29.53;22.53;;;0.50;99.90;;;;;;5039694;28;20179;-68
2020/12/11 03:06:18;;;;;;;31.40;24.93;;;0.50;99.90;;;;;;5038264;28;20228;-69
2020/12/11 03:08:44;;;;;;;28.03;23.80;;;0.50;99.90;;;;;;5034482;28;20199;-69
2020/12/11 03:11:10;;;;;;;33.47;24.73;;;0.40;99.90;;;;;;5046375;28;20206;-67
2020/12/11 03:13:35;;;;;;;29.10;22.30;;;0.50;99.90;;;;;;5037799;28;20326;-68
2020/12/11 03:16:01;;;;;;;30.83;24.67;;;0.50;99.90;;;;;;5034658;28;20194;-69
2020/12/11 03:18:26;;;;;;;27.90;23.07;;;0.50;99.90;;;;;;5038177;28;20686;-67
2020/12/11 03:20:52;;;;;;;29.70;24.80;;;0.50;99.90;;;;;;5037684;28;20922;-69
2020/12/11 03:23:17;;;;;;;27.70;23.27;;;0.50;99.90;;;;;;5040935;28;20202;-68
2020/12/11 03:25:43;;;;;;;30.23;24.13;;;0.50;99.90;;;;;;5037755;28;20195;-68
2020/12/11 03:28:08;;;;;;;30.77;25.30;;;0.50;99.90;;;;;;5041524;28;20195;-67
2020/12/11 03:30:34;;;;;;;30.30;24.60;;;0.50;99.90;;;;;;5040257;28;20650;-68
2020/12/11 03:33:00;;;;;;;33.30;25.20;;;0.50;99.90;;;;;;5039453;28;20190;-69
2020/12/11 03:35:25;;;;;;;32.83;24.73;;;0.50;99.90;;;;;;5036677;28;20270;-69
2020/12/11 03:37:51;;;;;;;32.37;24.90;;;0.50;99.90;;;;;;5037184;28;20214;-69
2020/12/11 03:40:16;;;;;;;33.00;25.80;;;0.50;99.90;;;;;;5038803;28;20219;-68
2020/12/11 03:42:42;;;;;;;30.83;24.27;;;0.40;99.90;;;;;;5042913;28;20565;-69
2020/12/11 03:45:08;;;;;;;29.37;23.57;;;0.40;99.90;;;;;;5038783;28;20318;-70
2020/12/11 03:47:33;;;;;;;31.60;24.43;;;0.40;99.90;;;;;;5038986;28;20185;-71
2020/12/11 03:49:59;;;;;;;31.73;25.50;;;0.30;99.90;;;;;;5042738;28;20603;-69
2020/12/11 03:52:31;;;;;;;30.83;23.97;;;0.30;99.90;;;;;;5039551;28;20190;-70
2020/12/11 03:54:57;;;;;;;32.40;24.17;;;0.30;99.90;;;;;;5036535;28;20222;-70
2020/12/11 03:57:23;;;;;;;31.03;24.07;;;0.20;99.90;;;;;;5044891;28;20214;-69
2020/12/11 03:59:49;;;;;;;32.93;25.70;;;0.20;99.90;;;;;;5035887;28;20222;-69
2020/12/11 04:02:15;;;;;;;31.30;24.23;;;0.20;99.90;;;;;;5035514;28;20218;-69
2020/12/11 04:04:42;;;;;;;35.40;25.43;;;0.20;99.90;;;;;;5036342;28;20205;-69
2020/12/11 04:07:08;;;;;;;29.97;23.53;;;0.20;99.90;;;;;;5039585;28;20262;-68
2020/12/11 04:09:34;;;;;;;32.53;24.23;;;0.10;99.90;;;;;;5051318;28;20196;-68
2020/12/11 04:12:00;;;;;;;34.83;26.13;;;0.10;99.90;;;;;;5044309;28;20197;-69
2020/12/11 04:14:25;;;;;;;33.87;24.70;;;0.10;99.90;;;;;;5040318;28;20255;-69
2020/12/11 04:16:51;;;;;;;33.97;25.27;;;0.10;99.90;;;;;;5035675;28;20191;-68
2020/12/11 04:19:17;;;;;;;34.90;25.47;;;0.10;99.90;;;;;;5036732;28;20222;-69
2020/12/11 04:21:53;;;;;;;33.33;24.93;;;0.00;99.90;;;;;;5041243;28;20707;-68
2020/12/11 04:24:21;;;;;;;33.23;25.33;;;0.00;99.90;;;;;;5040308;28;20188;-69
2020/12/11 04:26:47;;;;;;;35.07;25.37;;;0.00;99.90;;;;;;5033795;28;20189;-68
2020/12/11 04:29:13;;;;;;;36.20;27.03;;;-0.10;99.90;;;;;;5042254;28;20735;-68
2020/12/11 04:31:39;;;;;;;36.03;26.63;;;-0.10;99.90;;;;;;5033969;28;20191;-70
2020/12/11 04:34:04;;;;;;;37.07;26.27;;;-0.10;99.90;;;;;;5039633;28;20205;-70
2020/12/11 04:36:30;;;;;;;35.33;26.87;;;-0.10;99.90;;;;;;5034885;28;20272;-70
2020/12/11 04:38:56;;;;;;;33.63;25.03;;;-0.20;99.90;;;;;;5040193;28;20207;-70
2020/12/11 04:41:27;;;;;;;35.50;26.47;;;-0.20;99.90;;;;;;5037375;28;20201;-70
2020/12/11 04:43:55;;;;;;;37.87;27.27;;;-0.10;99.90;;;;;;5040993;28;20205;-70
2020/12/11 04:46:28;;;;;;;39.30;26.53;;;-0.10;99.90;;;;;;5033975;28;20181;-69
2020/12/11 04:48:55;;;;;;;34.67;25.93;;;-0.20;99.90;;;;;;5040949;28;20205;-70
2020/12/11 04:51:23;;;;;;;37.77;26.97;;;-0.20;99.90;;;;;;5034138;28;20211;-69
2020/12/11 04:53:52;;;;;;;34.63;26.63;;;-0.30;99.90;;;;;;5039601;28;20679;-71
2020/12/11 04:56:21;;;;;;;35.40;26.37;;;-0.30;99.90;;;;;;5038708;28;20189;-71
2020/12/11 04:58:50;;;;;;;37.33;26.60;;;-0.30;99.90;;;;;;5036189;28;20212;-69
2020/12/11 05:01:27;;;;;;;35.90;26.73;;;-0.40;99.90;;;;;;5041120;28;20174;-70
2020/12/11 05:03:54;;;;;;;36.23;26.17;;;-0.40;99.90;;;;;;5039836;28;20187;-71
2020/12/11 05:06:20;;;;;;;38.33;27.70;;;-0.50;99.90;;;;;;5038907;28;20179;-70
2020/12/11 05:08:45;;;;;;;37.50;28.00;;;-0.60;99.90;;;;;;5039285;28;20482;-69
2020/12/11 05:11:28;;;;;;;36.73;26.97;;;-0.60;99.90;;;;;;5037790;28;20613;-69
2020/12/11 05:13:55;;;;;;;38.33;27.40;;;-0.60;99.90;;;;;;5048551;28;20181;-71
2020/12/11 05:16:21;;;;;;;35.00;25.83;;;-0.60;99.90;;;;;;5059377;28;20180;-69
2020/12/11 05:19:00;;;;;;;38.10;27.20;;;-0.60;99.90;;;;;;5063389;28;20209;-71
2020/12/11 05:21:26;;;;;;;34.73;24.50;;;-0.70;99.90;;;;;;5052588;28;20183;-73
2020/12/11 05:23:57;;;;;;;34.83;26.07;;;-0.60;99.90;;;;;;5058520;28;20181;-74
2020/12/11 05:26:23;;;;;;;41.43;29.00;;;-0.60;99.90;;;;;;5053673;28;20197;-72
2020/12/11 05:28:50;;;;;;;40.70;28.90;;;-0.60;99.90;;;;;;5026668;28;20223;-70
2020/12/11 05:31:15;;;;;;;36.83;27.57;;;-0.70;99.90;;;;;;5031579;28;20562;-70
2020/12/11 05:34:10;;;;;;;37.80;27.67;;;-0.70;99.90;;;;;;5034919;28;20185;-70
2020/12/11 05:36:42;;;;;;;35.57;25.77;;;-0.60;99.90;;;;;;5046155;28;20255;-70
2020/12/11 05:39:07;;;;;;;35.27;25.47;;;-0.60;99.90;;;;;;5043948;28;20250;-70
2020/12/11 05:41:34;;;;;;;37.60;25.70;;;-0.60;99.90;;;;;;5041926;28;20197;-70
2020/12/11 05:44:00;;;;;;;49.40;31.30;;;-0.60;99.90;;;;;;5038806;28;20178;-70
2020/12/11 05:46:32;;;;;;;42.43;29.77;;;-0.70;99.90;;;;;;5043122;28;20205;-70
2020/12/11 05:48:59;;;;;;;37.80;27.57;;;-0.70;99.90;;;;;;5041410;28;20630;-70
2020/12/11 05:51:35;;;;;;;36.03;26.07;;;-0.70;99.90;;;;;;5042928;28;20180;-70
2020/12/11 05:54:05;;;;;;;41.03;27.07;;;-0.70;99.90;;;;;;5041293;28;20208;-72
2020/12/11 05:56:32;;;;;;;37.07;26.17;;;-0.70;99.90;;;;;;5042900;28;20214;-72
2020/12/11 05:58:58;;;;;;;34.20;24.97;;;-0.80;99.90;;;;;;5041835;28;20653;-70
2020/12/11 06:01:24;;;;;;;33.57;24.67;;;-0.80;99.90;;;;;;5021831;28;20656;-70
2020/12/11 06:03:51;;;;;;;33.77;24.57;;;-0.90;99.90;;;;;;5040650;28;20181;-71
2020/12/11 06:06:18;;;;;;;35.33;24.53;;;-1.00;99.90;;;;;;5044518;28;20239;-71
2020/12/11 06:08:46;;;;;;;34.73;23.47;;;-0.90;99.90;;;;;;5038978;28;20192;-71
2020/12/11 06:11:22;;;;;;;35.50;31.38;;;-0.90;99.90;;;;;;5040578;28;20430;-71
2020/12/11 06:13:55;;;;;;;31.60;25.07;;;-1.00;99.90;;;;;;5044706;28;20206;-71
2020/12/11 06:16:22;;;;;;;37.20;25.37;;;-1.00;99.90;;;;;;5044548;28;20273;-70
2020/12/11 06:19:04;;;;;;;34.70;25.40;;;-1.00;99.90;;;;;;5049337;28;20578;-71
2020/12/11 06:21:31;;;;;;;30.00;22.80;;;-1.00;99.90;;;;;;5048544;28;20182;-72
2020/12/11 06:23:56;;;;;;;31.60;22.30;;;-0.90;99.90;;;;;;5047772;28;20183;-70
2020/12/11 06:26:22;;;;;;;33.93;23.60;;;-0.80;99.90;;;;;;5046057;28;20193;-70
2020/12/11 06:28:48;;;;;;;31.63;22.53;;;-0.80;99.90;;;;;;5025251;28;20195;-71
2020/12/11 06:31:22;;;;;;;32.50;24.43;;;-0.80;99.90;;;;;;5043199;28;20287;-70
2020/12/11 06:33:52;;;;;;;32.13;22.37;;;-0.70;99.90;;;;;;5038376;28;20522;-71
2020/12/11 06:36:18;;;;;;;31.50;23.63;;;-0.70;99.90;;;;;;5041185;28;20238;-70
2020/12/11 06:38:53;;;;;;;33.93;23.73;;;-0.70;99.90;;;;;;5045851;28;20593;-70
2020/12/11 06:41:27;;;;;;;31.50;22.80;;;-0.70;99.90;;;;;;5046393;28;20203;-72
2020/12/11 06:43:58;;;;;;;33.60;24.33;;;-0.70;99.90;;;;;;5028812;28;20183;-70
2020/12/11 06:46:27;;;;;;;31.93;22.73;;;-0.70;99.90;;;;;;5045885;28;20178;-70
2020/12/11 06:49:09;;;;;;;34.57;24.63;;;-0.70;99.90;;;;;;5047208;28;20552;-72
2020/12/11 06:51:54;;;;;;;33.83;24.07;;;-0.70;99.90;;;;;;5047772;28;20183;-69
2020/12/11 06:54:23;;;;;;;38.83;26.70;;;-0.70;99.90;;;;;;5048597;28;20562;-70
2020/12/11 06:56:51;;;;;;;37.17;25.90;;;-0.70;99.90;;;;;;5046161;28;20696;-70
2020/12/11 06:59:26;;;;;;;38.83;27.27;;;-0.70;99.90;;;;;;5042758;28;20222;-70
2020/12/11 07:01:54;;;;;;;40.30;26.83;;;-0.60;99.90;;;;;;5037730;28;20178;-70
2020/12/11 07:04:21;;;;;;;36.93;26.80;;;-0.50;99.90;;;;;;5017631;28;20188;-70
2020/12/11 07:06:54;;;;;;;33.87;24.67;;;-0.50;99.90;;;;;;5043203;28;20181;-70
2020/12/11 07:09:20;;;;;;;35.30;26.17;;;-0.40;99.90;;;;;;5040902;28;20199;-69
2020/12/11 07:11:47;;;;;;;34.93;25.40;;;-0.40;99.90;;;;;;5043016;28;20196;-70
2020/12/11 07:14:14;;;;;;;32.77;25.03;;;-0.30;99.90;;;;;;5043808;28;20875;-70
2020/12/11 07:16:41;;;;;;;32.40;23.73;;;-0.20;99.90;;;;;;5038718;28;20243;-69
2020/12/11 07:19:07;;;;;;;34.07;24.97;;;-0.20;99.90;;;;;;5011160;28;20203;-69
2020/12/11 07:21:33;;;;;;;30.70;24.17;;;-0.10;99.90;;;;;;5032791;28;20190;-69
2020/12/11 07:24:03;;;;;;;32.27;25.10;;;0.00;99.90;;;;;;5024761;28;20179;-69
2020/12/11 07:26:29;;;;;;;32.43;25.37;;;0.00;99.90;;;;;;5042730;28;20214;-70
2020/12/11 07:29:06;;;;;;;32.23;23.43;;;-0.10;99.90;;;;;;5045550;28;20219;-69
2020/12/11 07:31:37;;;;;;;31.87;24.00;;;-0.10;99.90;;;;;;5038914;28;20182;-70
2020/12/11 07:34:11;;;;;;;45.37;25.13;;;-0.10;99.90;;;;;;5043212;28;20199;-70
2020/12/11 07:36:41;;;;;;;30.73;23.23;;;-0.20;99.90;;;;;;5047026;28;20668;-70
2020/12/11 07:39:18;;;;;;;29.10;22.57;;;-0.20;99.90;;;;;;5046515;28;20207;-70
2020/12/11 07:41:45;;;;;;;29.67;23.40;;;-0.10;99.90;;;;;;5016262;28;20195;-69
2020/12/11 07:44:32;;;;;;;30.93;23.90;;;-0.10;99.90;;;;;;5037639;28;20551;-69
2020/12/11 07:47:09;;;;;;;29.33;22.27;;;-0.10;99.90;;;;;;5028938;28;20197;-69
2020/12/11 07:49:40;;;;;;;31.20;22.63;;;0.00;99.90;;;;;;5041365;28;20223;-70
2020/12/11 07:52:06;;;;;;;28.37;21.57;;;0.00;99.90;;;;;;5038537;28;20685;-69
2020/12/11 07:54:37;;;;;;;28.37;21.80;;;0.10;99.90;;;;;;5046601;28;20188;-70
2020/12/11 07:57:10;;;;;;;29.40;22.23;;;0.20;99.90;;;;;;5037566;28;20634;-69
2020/12/11 07:59:36;;;;;;;28.50;21.03;;;0.20;99.90;;;;;;5043236;28;20707;-69
2020/12/11 08:02:02;;;;;;;31.57;24.70;;;0.30;99.90;;;;;;5027727;28;20185;-69
2020/12/11 08:04:27;;;;;;;33.50;26.40;;;0.30;99.90;;;;;;5040158;28;20183;-69
2020/12/11 08:06:59;;;;;;;34.40;25.70;;;0.40;99.90;;;;;;5042497;28;20192;-70
2020/12/11 08:09:33;;;;;;;34.83;23.63;;;0.70;99.90;;;;;;5033674;28;20283;-69
2020/12/11 08:12:16;;;;;;;31.30;23.67;;;1.10;99.50;;;;;;5035597;28;20685;-70
2020/12/11 08:14:46;;;;;;;29.90;23.77;;;1.40;98.10;;;;;;5041713;28;20195;-69
2020/12/11 08:17:13;;;;;;;30.57;23.07;;;1.30;97.30;;;;;;5037495;28;20187;-70
2020/12/11 08:19:40;;;;;;;28.93;22.97;;;1.40;98.20;;;;;;5023433;28;20211;-69
2020/12/11 08:22:16;;;;;;;25.67;21.13;;;1.50;98.30;;;;;;5045743;28;20180;-68
2020/12/11 08:24:45;;;;;;;28.70;21.50;;;1.40;97.40;;;;;;5045353;28;20246;-68
2020/12/11 08:27:21;;;;;;;27.73;22.47;;;1.50;97.50;;;;;;5022146;28;20211;-69
2020/12/11 08:30:21;;;;;;;25.50;21.17;;;1.60;97.00;;;;;;5040637;28;20203;-69
2020/12/11 08:32:48;;;;;;;28.23;21.50;;;1.60;97.20;;;;;;4971467;28;20285;-69
2020/12/11 08:35:22;;;;;;;23.87;20.33;;;1.70;97.10;;;;;;4973945;28;20233;-69
2020/12/11 08:37:58;;;;;;;25.73;21.70;;;2.00;96.10;;;;;;4968095;28;20213;-69
2020/12/11 08:40:27;;;;;;;22.40;19.87;;;2.50;95.40;;;;;;4979603;28;20273;-69
2020/12/11 08:43:32;;;;;;;22.73;19.27;;;2.80;93.50;;;;;;4970758;28;20198;-69
2020/12/11 08:48:58;;;;;;;26.07;21.50;;;3.50;94.10;;;;;;4965974;28;20317;-69
2020/12/11 08:51:23;;;;;;;27.37;21.43;;;3.80;92.90;;;;;;4966007;28;20203;-69
2020/12/11 08:53:53;;;;;;;26.37;20.83;;;4.00;91.90;;;;;;4967503;28;20274;-70
2020/12/11 08:56:19;;;;;;;27.70;22.93;;;4.30;90.30;;;;;;4967507;28;20192;-70
2020/12/11 08:58:44;;;;;;;27.43;21.70;;;4.60;86.20;;;;;;4966537;28;20220;-69
2020/12/11 09:01:10;;;;;;;23.20;20.57;;;4.80;81.50;;;;;;4967839;28;20214;-71
2020/12/11 09:03:35;;;;;;;19.77;17.67;;;4.90;81.60;;;;;;4961696;28;20212;-69
2020/12/11 09:06:01;;;;;;;21.67;17.90;;;5.20;79.40;;;;;;4967497;28;20184;-69
2020/12/11 09:08:27;;;;;;;21.90;18.53;;;5.40;77.00;;;;;;5009343;28;20196;-70
2020/12/11 09:10:52;;;;;;;20.43;18.23;;;5.50;76.70;;;;;;5048451;28;20204;-69
2020/12/11 09:13:18;;;;;;;19.23;17.17;;;5.10;76.20;;;;;;5039524;28;20180;-70
2020/12/11 09:15:43;;;;;;;18.23;16.33;;;5.10;76.30;;;;;;5044431;28;20183;-70
2020/12/11 09:18:09;;;;;;;17.73;15.83;;;4.80;77.80;;;;;;5042992;28;20207;-70
2020/12/11 09:20:35;;;;;;;18.77;16.87;;;4.80;79.00;;;;;;5053479;28;20202;-70
2020/12/11 09:23:00;;;;;;;19.73;16.83;;;4.50;79.60;;;;;;5033959;28;20747;-70
2020/12/11 09:25:26;;;;;;;19.30;17.23;;;4.60;80.60;;;;;;5037950;28;20671;-70
2020/12/11 09:27:52;;;;;;;18.53;16.63;;;4.80;80.30;;;;;;5049372;28;20190;-69
2020/12/11 09:30:32;;;;;;;19.23;17.23;;;4.50;81.90;;;;;;5026984;28;20225;-70
2020/12/11 09:35:29;;;;;;;18.60;15.00;;;5.60;77.00;;;;;;5041071;28;20521;-72
2020/12/11 09:37:56;;;;;;;17.47;15.77;;;5.70;75.60;;;;;;5047793;28;20183;-69
2020/12/11 09:40:42;;;;;;;16.70;15.00;;;5.80;74.60;;;;;;5042286;28;20221;-70
2020/12/11 09:56:05;;;;;;;16.10;14.40;;;4.30;80.20;;;;;;5041041;28;20206;-70
2020/12/11 09:58:35;;;;;;;19.60;14.13;;;4.00;83.80;;;;;;5038789;28;20212;-70
2020/12/11 10:01:02;;;;;;;16.40;14.77;;;3.70;87.20;;;;;;5038720;28;20334;-70
2020/12/11 10:03:34;;;;;;;15.97;14.37;;;3.60;90.30;;;;;;5050176;28;20177;-69
2020/12/11 10:05:59;;;;;;;17.07;14.60;;;3.50;89.70;;;;;;5039426;28;20565;-69
2020/12/11 10:08:25;;;;;;;17.13;14.97;;;3.60;90.60;;;;;;5040484;28;20279;-71
2020/12/11 10:10:51;;;;;;;32.43;23.03;;;3.60;91.00;;;;;;5049208;28;20216;-72
2020/12/11 10:13:16;;;;;;;45.07;27.27;;;3.70;90.70;;;;;;5038083;28;20214;-71
2020/12/11 10:15:42;;;;;;;23.07;16.17;;;4.00;89.90;;;;;;5045232;28;20201;-70
2020/12/11 10:18:08;;;;;;;16.97;15.17;;;4.00;87.20;;;;;;5042504;28;20753;-70
2020/12/11 10:20:35;;;;;;;16.80;14.60;;;3.90;87.10;;;;;;5037149;28;20200;-70
2020/12/11 10:23:00;;;;;;;16.70;14.80;;;3.80;86.50;;;;;;5038961;28;20183;-70
2020/12/11 10:25:26;;;;;;;18.43;15.40;;;3.60;88.70;;;;;;5045109;28;20265;-70
2020/12/11 10:27:52;;;;;;;18.83;15.93;;;3.40;90.00;;;;;;5047504;28;20785;-70
2020/12/11 10:30:19;;;;;;;16.60;14.80;;;3.30;91.10;;;;;;5046918;28;20572;-70
2020/12/11 10:32:45;;;;;;;32.33;25.70;;;3.30;90.70;;;;;;5048000;28;20201;-71
2020/12/11 10:35:11;;;;;;;30.47;20.70;;;3.40;90.20;;;;;;5040181;28;20700;-71
2020/12/11 10:37:36;;;;;;;17.30;14.70;;;3.20;90.70;;;;;;5046255;28;20266;-71
2020/12/11 10:40:03;;;;;;;16.93;14.70;;;3.20;90.70;;;;;;5045067;28;20312;-71
2020/12/11 10:42:30;;;;;;;17.73;15.00;;;3.20;90.60;;;;;;5046525;28;20183;-71
2020/12/11 10:44:56;;;;;;;16.90;14.60;;;3.20;90.70;;;;;;5035577;28;20183;-71
2020/12/11 10:47:22;;;;;;;17.63;14.97;;;3.00;90.90;;;;;;5041835;28;20178;-71
2020/12/11 10:49:47;;;;;;;18.50;15.77;;;3.00;91.30;;;;;;5044833;28;20219;-71
2020/12/11 10:52:14;;;;;;;18.13;15.37;;;3.10;91.60;;;;;;5044050;28;20227;-71
2020/12/11 10:54:40;;;;;;;18.63;16.40;;;3.10;91.10;;;;;;5044729;28;20210;-71
2020/12/11 10:57:06;;;;;;;19.93;16.93;;;3.10;91.70;;;;;;5036309;28;20766;-71
2020/12/11 10:59:31;;;;;;;18.90;14.97;;;3.30;91.30;;;;;;5045484;28;20213;-71
2020/12/11 11:01:57;;;;;;;18.43;15.33;;;3.70;91.10;;;;;;5043273;28;20180;-71
2020/12/11 11:04:23;;;;;;;17.80;14.50;;;4.20;86.80;;;;;;5031312;28;20274;-71
2020/12/11 11:07:32;;;;;;;20.73;15.20;;;4.70;83.80;;;;;;5039089;28;20195;-70
2020/12/11 11:12:14;;;;;;;14.73;13.03;;;5.90;75.00;;;;;;5038978;28;20188;-71
2020/12/11 11:30:04;;;;;;;59.67;38.63;;;5.60;76.50;;;;;;5039004;28;20236;-71
2020/12/11 11:32:30;;;;;;;19.00;16.40;;;5.40;79.70;;;;;;5037108;28;20214;-72
2020/12/11 11:34:56;;;;;;;17.90;15.07;;;5.50;80.10;;;;;;5042796;28;20188;-71
2020/12/11 11:37:24;;;;;;;16.13;14.53;;;5.80;77.40;;;;;;5038319;28;20197;-71
2020/12/11 11:39:49;;;;;;;17.23;15.53;;;6.20;76.10;;;;;;5043520;28;20214;-71
2020/12/11 11:42:15;;;;;;;16.57;14.87;;;6.60;72.90;;;;;;5044217;28;20186;-71
2020/12/11 11:44:50;;;;;;;16.43;14.80;;;6.90;72.10;;;;;;5044277;28;20186;-71
2020/12/11 11:47:16;;;;;;;16.87;15.17;;;6.80;71.10;;;;;;5036591;28;20183;-71
2020/12/11 11:54:42;;;;;;;20.07;18.00;;;6.10;75.60;;;;;;5044024;28;20190;-71
2020/12/11 11:57:07;;;;;;;18.37;16.57;;;6.00;75.90;;;;;;5046324;28;20189;-70
2020/12/11 11:59:33;;;;;;;17.70;15.90;;;5.60;79.80;;;;;;5032991;28;20290;-70
2020/12/11 12:01:58;;;;;;;18.60;16.60;;;5.90;79.40;;;;;;5036242;28;20603;-71
2020/12/11 12:04:24;;;;;;;18.33;16.43;;;6.20;77.10;;;;;;5032363;28;20188;-71
2020/12/11 12:06:50;;;;;;;18.27;16.47;;;6.50;75.50;;;;;;5036753;28;20177;-71
2020/12/11 12:09:17;;;;;;;19.90;17.90;;;6.40;74.10;;;;;;5034717;28;20230;-71
2020/12/11 12:11:44;;;;;;;21.73;19.53;;;6.80;72.90;;;;;;5032609;28;20227;-71
2020/12/11 12:14:09;;;;;;;19.33;16.97;;;7.00;71.70;;;;;;5036188;28;20639;-70
2020/12/11 12:16:36;;;;;;;18.73;16.10;;;6.80;72.50;;;;;;5038481;28;20256;-73
2020/12/11 12:19:02;;;;;;;18.27;16.03;;;6.80;72.00;;;;;;5037372;28;20208;-76
2020/12/11 12:29:22;;;;;;;20.87;18.53;;;5.80;81.30;;;;;;5042726;28;20252;-73
2020/12/11 12:31:53;;;;;;;18.77;16.87;;;5.60;82.90;;;;;;5044490;28;20188;-75
2020/12/11 12:36:58;;;;;;;18.93;17.03;;;5.40;83.30;;;;;;5036933;28;20608;-70
2020/12/11 12:44:39;;;;;;;21.20;18.63;;;5.20;85.90;;;;;;5037192;28;20201;-72
2020/12/11 12:47:05;;;;;;;20.23;18.00;;;5.20;87.90;;;;;;5036389;28;20177;-67
2020/12/11 12:49:31;;;;;;;20.13;17.90;;;5.20;87.20;;;;;;5043485;28;20661;-67
2020/12/11 12:51:56;;;;;;;21.70;18.10;;;4.90;88.70;;;;;;5039907;28;20218;-67
2020/12/11 12:54:22;;;;;;;22.63;18.83;;;4.80;90.30;;;;;;5042298;28;20186;-67
2020/12/11 12:56:52;;;;;;;24.60;19.77;;;4.70;90.00;;;;;;5040836;28;20550;-67
2020/12/11 12:59:38;;;;;;;23.63;17.17;;;4.70;91.00;;;;;;5041037;28;20221;-68
2020/12/11 13:07:28;;;;;;;23.50;19.17;;;4.50;91.60;;;;;;5037379;28;20217;-68
2020/12/11 13:09:54;;;;;;;20.30;17.70;;;4.30;91.90;;;;;;5036655;28;21773;-73
2020/12/11 13:12:21;;;;;;;21.23;18.57;;;4.20;93.00;;;;;;5048204;28;20189;-71
2020/12/11 13:14:47;;;;;;;19.57;17.33;;;4.10;93.40;;;;;;5036077;28;20237;-68
2020/12/11 13:17:13;;;;;;;19.17;16.03;;;4.00;93.40;;;;;;5040757;28;20196;-68
2020/12/11 13:19:39;;;;;;;20.20;17.30;;;3.90;93.70;;;;;;5037755;28;20212;-69
2020/12/11 13:27:33;;;;;;;23.30;18.77;;;3.70;95.30;;;;;;5044486;28;20200;-68
2020/12/11 13:29:59;;;;;;;25.03;17.50;;;3.70;95.50;;;;;;5043706;28;20205;-68
2020/12/11 13:32:28;;;;;;;24.07;19.63;;;3.70;95.30;;;;;;5042102;28;20189;-70
2020/12/11 13:34:53;;;;;;;20.50;17.20;;;3.80;95.70;;;;;;5040261;28;20197;-69
2020/12/11 13:37:19;;;;;;;19.13;17.10;;;3.80;95.50;;;;;;5028756;28;20288;-68
2020/12/11 13:39:45;;;;;;;20.83;16.53;;;3.80;95.70;;;;;;5042594;28;20211;-68
2020/12/11 13:42:10;;;;;;;18.47;16.17;;;3.80;95.30;;;;;;5042691;28;20185;-69
2020/12/11 13:44:36;;;;;;;19.27;16.57;;;3.80;94.40;;;;;;5041016;28;20186;-68
2020/12/11 13:47:05;;;;;;;20.93;16.33;;;3.90;94.10;;;;;;5040397;28;20264;-68